createdAt,value
2022-09-12T00:01:03.912Z,18.81
2022-09-12T00:03:41.995Z,19.15
2022-09-12T00:06:31.723Z,19.35
2022-09-12T00:09:23.113Z,19.04
2022-09-12T00:12:05.044Z,19.56
2022-09-12T00:14:54.235Z,19.66
2022-09-12T00:17:40.968Z,19.69
2022-09-12T00:20:21.607Z,19.36
2022-09-12T00:23:07.030Z,19.77
2022-09-12T00:25:56.490Z,19.71
2022-09-12T00:28:34.866Z,19.71
2022-09-12T00:31:22.315Z,19.78
2022-09-12T00:33:58.868Z,19.89
2022-09-12T00:36:55.082Z,19.89
2022-09-12T00:39:31.893Z,20.21
2022-09-12T00:42:18.842Z,20.47
2022-09-12T00:45:12.378Z,20.55
2022-09-12T00:47:57.815Z,20.81
2022-09-12T00:50:39.417Z,20.92
2022-09-12T00:53:20.751Z,20.89
2022-09-12T00:56:12.948Z,20.79
2022-09-12T00:58:57.361Z,20.69
2022-09-12T01:01:52.110Z,20.60
2022-09-12T01:04:39.639Z,20.59
2022-09-12T01:07:23.424Z,20.56
2022-09-12T01:10:04.960Z,20.76
2022-09-12T01:12:51.639Z,21.01
2022-09-12T01:15:28.189Z,21.04
2022-09-12T01:18:32.166Z,21.54
2022-09-12T01:21:20.214Z,21.70
2022-09-12T01:24:32.000Z,21.89
2022-09-12T01:27:49.331Z,21.98
2022-09-12T01:31:08.809Z,22.18
2022-09-12T01:34:11.816Z,22.28
2022-09-12T01:37:05.074Z,22.35
2022-09-12T01:39:49.712Z,22.36
2022-09-12T01:42:34.353Z,22.49
2022-09-12T01:45:31.539Z,22.65
2022-09-12T01:48:35.132Z,22.52
2022-09-12T01:51:19.581Z,22.44
2022-09-12T01:54:08.840Z,22.13
2022-09-12T01:56:53.537Z,21.79
2022-09-12T01:59:49.700Z,22.01
2022-09-12T02:02:45.184Z,22.20
2022-09-12T02:05:30.366Z,22.44
2022-09-12T02:08:16.448Z,22.63
2022-09-12T02:14:22.027Z,22.70
2022-09-12T02:17:12.454Z,22.73
2022-09-12T02:19:56.169Z,22.60
2022-09-12T02:22:49.727Z,22.47
2022-09-12T02:25:28.400Z,22.70
2022-09-12T02:28:14.461Z,22.76
2022-09-12T02:31:10.878Z,22.69
2022-09-12T02:34:05.024Z,22.97
2022-09-12T02:37:01.293Z,23.18
2022-09-12T02:39:45.497Z,23.44
2022-09-12T02:42:31.785Z,23.40
2022-09-12T02:45:13.502Z,23.28
2022-09-12T02:48:04.599Z,23.28
2022-09-12T02:50:50.381Z,23.33
2022-09-12T02:53:30.339Z,23.44
2022-09-12T02:56:23.151Z,23.48
2022-09-12T02:59:06.880Z,23.36
2022-09-12T03:02:20.866Z,23.50
2022-09-12T03:05:18.610Z,23.69
2022-09-12T03:08:37.262Z,23.63
2022-09-12T03:11:46.467Z,23.68
2022-09-12T03:14:43.877Z,23.72
2022-09-12T03:17:40.135Z,23.79
2022-09-12T03:23:19.767Z,23.85
2022-09-12T03:25:57.527Z,23.99
2022-09-12T03:28:42.015Z,23.99
2022-09-12T03:31:49.811Z,24.32
2022-09-12T03:37:33.351Z,24.15
2022-09-12T03:40:13.796Z,24.05
2022-09-12T03:42:59.027Z,24.02
2022-09-12T03:45:44.645Z,24.14
2022-09-12T03:48:31.343Z,24.23
2022-09-12T03:51:09.945Z,24.26
2022-09-12T03:57:00.415Z,24.31
2022-09-12T04:00:08.145Z,24.04
2022-09-12T04:03:08.103Z,23.96
2022-09-12T04:05:51.892Z,24.00
2022-09-12T04:08:32.098Z,23.85
2022-09-12T04:11:33.831Z,24.14
2022-09-12T04:14:25.910Z,24.23
2022-09-12T04:17:13.955Z,23.75
2022-09-12T04:20:09.881Z,23.91
2022-09-12T04:22:52.035Z,23.88
2022-09-12T04:25:36.692Z,23.50
2022-09-12T04:28:12.215Z,23.54
2022-09-12T04:30:49.422Z,23.32
2022-09-12T04:33:31.533Z,23.27
2022-09-12T04:36:11.177Z,23.35
2022-09-12T04:38:51.799Z,23.54
2022-09-12T04:41:30.430Z,23.63
2022-09-12T04:46:54.181Z,23.84
2022-09-12T04:49:26.266Z,23.89
2022-09-12T04:52:07.997Z,23.74
2022-09-12T04:54:49.954Z,23.55
2022-09-12T04:57:34.687Z,23.43
2022-09-12T05:00:15.417Z,23.18
2022-09-12T05:02:52.514Z,23.33
2022-09-12T05:05:32.505Z,23.44
2022-09-12T05:08:31.961Z,23.56
2022-09-12T05:14:09.387Z,23.58
2022-09-12T05:16:51.821Z,23.61
2022-09-12T05:19:39.235Z,23.60
2022-09-12T05:22:26.688Z,23.61
2022-09-12T05:25:14.061Z,23.46
2022-09-12T05:28:14.335Z,23.24
2022-09-12T05:31:18.370Z,23.05
2022-09-12T05:34:01.652Z,22.78
2022-09-12T05:36:41.494Z,22.26
2022-09-12T05:39:29.041Z,22.30
2022-09-12T05:42:39.618Z,22.14
2022-09-12T05:45:18.527Z,21.98
2022-09-12T05:47:57.308Z,21.97
2022-09-12T05:50:41.266Z,21.91
2022-09-12T05:53:23.061Z,21.64
2022-09-12T05:56:31.815Z,21.78
2022-09-12T05:59:34.245Z,21.76
2022-09-12T06:05:03.515Z,21.58
2022-09-12T06:07:45.280Z,21.47
2022-09-12T06:10:25.476Z,21.40
2022-09-12T06:13:22.189Z,21.36
2022-09-12T06:16:26.012Z,21.16
2022-09-12T06:22:17.403Z,21.46
2022-09-12T06:25:04.045Z,21.47
2022-09-12T06:27:49.851Z,21.42
2022-09-12T06:30:30.062Z,21.42
2022-09-12T06:33:15.020Z,21.41
2022-09-12T06:36:01.012Z,21.36
2022-09-12T06:38:40.007Z,20.91
2022-09-12T06:41:20.254Z,21.15
2022-09-12T06:44:12.450Z,20.80
2022-09-12T06:46:48.150Z,20.92
2022-09-12T06:49:59.241Z,20.86
2022-09-12T06:52:42.269Z,20.80
2022-09-12T06:55:29.742Z,20.80
2022-09-12T06:58:26.005Z,20.78
2022-09-12T07:01:17.140Z,20.74
2022-09-12T07:04:04.295Z,20.71
2022-09-12T07:06:49.883Z,20.60
2022-09-12T07:09:27.395Z,20.50
2022-09-12T07:12:06.274Z,20.45
2022-09-12T07:15:00.765Z,20.34
2022-09-12T07:17:44.271Z,20.17
2022-09-12T07:20:35.213Z,20.00
2022-09-12T07:23:19.999Z,19.97
2022-09-12T07:26:22.220Z,19.78
2022-09-12T07:29:32.438Z,19.55
2022-09-12T07:32:07.824Z,19.61
2022-09-12T07:34:42.765Z,19.60
2022-09-12T07:37:26.822Z,19.49
2022-09-12T07:40:22.970Z,18.99
2022-09-12T07:43:12.463Z,19.24
2022-09-12T07:45:54.346Z,19.19
2022-09-12T07:48:43.851Z,18.99
2022-09-12T07:51:20.155Z,19.05
2022-09-12T07:54:05.590Z,19.02
2022-09-12T07:56:45.858Z,18.90
2022-09-12T07:59:51.439Z,18.93
2022-09-12T08:02:42.963Z,18.86
2022-09-12T08:05:22.812Z,18.67
2022-09-12T08:08:11.857Z,18.79
2022-09-12T08:11:01.307Z,18.72
2022-09-12T08:13:40.183Z,18.63
2022-09-12T08:16:25.941Z,18.64
2022-09-12T08:19:16.150Z,18.58
2022-09-12T08:21:56.285Z,18.51
2022-09-12T08:24:36.433Z,18.54
2022-09-12T08:27:17.839Z,18.57
2022-09-12T08:30:10.824Z,18.55
2022-09-12T08:32:59.788Z,18.50
2022-09-12T08:35:42.367Z,18.46
2022-09-12T08:38:26.613Z,18.46
2022-09-12T08:41:33.011Z,18.37
2022-09-12T08:44:51.767Z,18.39
2022-09-12T08:47:38.353Z,18.34
2022-09-12T08:50:31.788Z,18.24
2022-09-12T08:53:12.135Z,18.22
2022-09-12T08:59:02.407Z,17.97
2022-09-12T09:02:07.062Z,18.07
2022-09-12T09:05:20.704Z,17.97
2022-09-12T09:08:22.709Z,17.71
2022-09-12T09:11:11.153Z,17.97
2022-09-12T09:14:20.219Z,17.92
2022-09-12T09:17:05.611Z,17.87
2022-09-12T09:19:54.885Z,17.83
2022-09-12T09:22:43.567Z,17.87
2022-09-12T09:25:26.849Z,17.86
2022-09-12T09:28:15.828Z,17.80
2022-09-12T09:31:09.292Z,17.72
2022-09-12T09:33:57.519Z,17.75
2022-09-12T09:36:54.544Z,17.69
2022-09-12T09:40:04.127Z,17.65
2022-09-12T09:43:00.410Z,17.60
2022-09-12T09:48:47.891Z,17.59
2022-09-12T09:51:35.429Z,17.27
2022-09-12T09:54:34.076Z,17.53
2022-09-12T09:57:51.705Z,17.52
2022-09-12T10:00:42.138Z,17.39
2022-09-12T10:03:39.863Z,17.25
2022-09-12T10:06:44.208Z,17.42
2022-09-12T10:09:52.089Z,17.36
2022-09-12T10:15:48.369Z,17.38
2022-09-12T10:18:41.276Z,17.20
2022-09-12T10:21:36.048Z,17.26
2022-09-12T10:24:28.928Z,16.92
2022-09-12T10:27:24.700Z,17.31
2022-09-12T10:30:16.497Z,17.15
2022-09-12T10:33:05.549Z,17.31
2022-09-12T10:35:58.149Z,17.35
2022-09-12T10:38:44.316Z,17.34
2022-09-12T10:41:24.706Z,17.35
2022-09-12T10:44:28.121Z,17.37
2022-09-12T10:47:51.790Z,17.34
2022-09-12T10:50:39.845Z,17.35
2022-09-12T10:53:45.081Z,17.05
2022-09-12T10:56:44.405Z,17.28
2022-09-12T10:59:34.935Z,17.25
2022-09-12T11:02:44.475Z,17.22
2022-09-12T11:05:28.784Z,17.15
2022-09-12T11:08:22.619Z,17.23
2022-09-12T11:11:08.648Z,17.24
2022-09-12T11:14:06.161Z,17.22
2022-09-12T11:17:12.794Z,17.29
2022-09-12T11:20:24.794Z,17.30
2022-09-12T11:23:40.244Z,17.31
2022-09-12T11:26:35.202Z,17.12
2022-09-12T11:29:35.691Z,17.32
2022-09-12T11:35:45.379Z,17.28
2022-09-12T11:38:56.018Z,17.32
2022-09-12T11:42:00.595Z,17.30
2022-09-12T11:44:43.403Z,17.32
2022-09-12T11:47:30.814Z,17.18
2022-09-12T11:50:19.460Z,17.33
2022-09-12T11:53:01.604Z,17.31
2022-09-12T11:56:06.401Z,17.27
2022-09-12T11:58:51.222Z,17.22
2022-09-12T12:01:48.693Z,17.24
2022-09-12T12:04:34.680Z,17.22
2022-09-12T12:07:23.672Z,17.24
2022-09-12T12:10:16.072Z,17.23
2022-09-12T12:13:03.625Z,17.21
2022-09-12T12:15:48.478Z,17.20
2022-09-12T12:18:33.137Z,17.20
2022-09-12T12:21:35.215Z,17.20
2022-09-12T12:24:22.975Z,17.01
2022-09-12T12:27:17.212Z,17.18
2022-09-12T12:30:23.947Z,17.20
2022-09-12T12:33:06.213Z,17.18
2022-09-12T12:36:19.761Z,17.12
2022-09-12T12:39:04.365Z,17.14
2022-09-12T12:44:57.740Z,17.11
2022-09-12T12:50:34.656Z,17.13
2022-09-12T12:53:14.538Z,17.07
2022-09-12T12:56:34.478Z,17.09
2022-09-12T13:02:14.906Z,17.12
2022-09-12T13:05:00.761Z,17.08
2022-09-12T13:07:40.327Z,17.01
2022-09-12T13:10:50.135Z,17.09
2022-09-12T13:13:36.543Z,17.10
2022-09-12T13:16:30.405Z,16.92
2022-09-12T13:19:26.022Z,17.09
2022-09-12T13:22:13.671Z,17.06
2022-09-12T13:24:57.877Z,17.04
2022-09-12T13:27:41.324Z,17.06
2022-09-12T13:30:26.897Z,16.82
2022-09-12T13:33:05.809Z,17.08
2022-09-12T13:36:12.745Z,17.09
2022-09-12T13:39:08.462Z,17.09
2022-09-12T13:42:18.812Z,17.06
2022-09-12T13:45:12.259Z,17.06
2022-09-12T13:48:14.244Z,17.01
2022-09-12T13:51:06.898Z,17.04
2022-09-12T13:53:57.226Z,17.09
2022-09-12T13:56:34.150Z,17.11
2022-09-12T13:59:30.524Z,17.11
2022-09-12T14:02:12.600Z,16.97
2022-09-12T14:05:27.294Z,17.09
2022-09-12T14:08:14.491Z,17.08
2022-09-12T14:10:53.037Z,17.07
2022-09-12T14:13:38.250Z,17.03
2022-09-12T14:16:41.971Z,17.10
2022-09-12T14:19:28.187Z,16.96
2022-09-12T14:22:18.374Z,17.09
2022-09-12T14:24:55.440Z,17.12
2022-09-12T14:27:37.463Z,17.01
2022-09-12T14:30:38.377Z,17.08
2022-09-12T14:33:23.722Z,16.80
2022-09-12T14:36:23.717Z,17.11
2022-09-12T14:39:09.622Z,17.09
2022-09-12T14:42:08.962Z,17.11
2022-09-12T14:44:53.060Z,17.14
2022-09-12T14:47:47.235Z,17.17
2022-09-12T14:53:51.712Z,17.07
2022-09-12T14:57:16.108Z,17.13
2022-09-12T15:00:19.680Z,17.16
2022-09-12T15:03:34.398Z,16.86
2022-09-12T15:06:15.080Z,17.05
2022-09-12T15:09:00.433Z,17.05
2022-09-12T15:11:55.391Z,16.97
2022-09-12T15:14:55.294Z,16.97
2022-09-12T15:18:07.055Z,16.98
2022-09-12T15:20:56.201Z,16.91
2022-09-12T15:24:00.650Z,16.92
2022-09-12T15:26:51.985Z,16.90
2022-09-12T15:29:31.050Z,16.88
2022-09-12T15:32:12.776Z,16.89
2022-09-12T15:35:05.378Z,16.64
2022-09-12T15:37:57.828Z,16.89
2022-09-12T15:40:40.827Z,16.87
2022-09-12T15:43:24.015Z,16.49
2022-09-12T15:46:08.700Z,16.81
2022-09-12T15:48:52.521Z,16.78
2022-09-12T15:51:39.987Z,16.76
2022-09-12T15:54:29.148Z,16.76
2022-09-12T15:57:09.004Z,16.79
2022-09-12T15:59:45.085Z,16.52
2022-09-12T16:02:24.322Z,16.61
2022-09-12T16:05:27.816Z,16.84
2022-09-12T16:08:20.469Z,16.79
2022-09-12T16:11:00.124Z,16.49
2022-09-12T16:13:51.337Z,16.84
2022-09-12T16:16:46.681Z,16.84
2022-09-12T16:19:25.012Z,16.84
2022-09-12T16:22:18.824Z,16.80
2022-09-12T16:25:24.552Z,16.79
2022-09-12T16:28:02.439Z,16.79
2022-09-12T16:30:44.705Z,16.79
2022-09-12T16:33:26.861Z,16.58
2022-09-12T16:36:13.096Z,16.74
2022-09-12T16:38:52.078Z,16.70
2022-09-12T16:41:38.807Z,16.69
2022-09-12T16:47:11.392Z,16.59
2022-09-12T16:49:46.840Z,16.55
2022-09-12T16:52:30.664Z,16.52
2022-09-12T16:55:36.085Z,16.50
2022-09-12T16:58:15.174Z,16.48
2022-09-12T17:00:53.287Z,16.48
2022-09-12T17:03:40.340Z,16.47
2022-09-12T17:06:19.241Z,16.45
2022-09-12T17:09:02.952Z,16.41
2022-09-12T17:11:50.492Z,16.33
2022-09-12T17:14:29.398Z,16.36
2022-09-12T17:20:10.785Z,16.44
2022-09-12T17:22:48.514Z,16.43
2022-09-12T17:25:46.973Z,16.44
2022-09-12T17:29:21.526Z,16.48
2022-09-12T17:32:06.770Z,16.50
2022-09-12T17:34:53.986Z,16.47
2022-09-12T17:37:39.311Z,16.45
2022-09-12T17:40:19.355Z,16.43
2022-09-12T17:43:12.208Z,16.48
2022-09-12T17:45:52.077Z,16.51
2022-09-12T17:48:34.975Z,16.55
2022-09-12T17:51:23.100Z,16.20
2022-09-12T17:57:15.350Z,16.67
2022-09-12T18:00:09.524Z,16.70
2022-09-12T18:02:52.340Z,16.73
2022-09-12T18:05:39.473Z,16.78
2022-09-12T18:08:15.948Z,16.81
2022-09-12T18:11:02.542Z,16.84
2022-09-12T18:13:43.060Z,16.87
2022-09-12T18:16:24.775Z,16.89
2022-09-12T18:19:21.731Z,16.64
2022-09-12T18:22:08.825Z,16.75
2022-09-12T18:24:55.943Z,16.93
2022-09-12T18:27:35.861Z,16.97
2022-09-12T18:30:22.071Z,16.98
2022-09-12T18:32:59.595Z,16.96
2022-09-12T18:35:47.253Z,17.01
2022-09-12T18:38:32.940Z,17.00
2022-09-12T18:41:14.942Z,17.03
2022-09-12T18:44:04.452Z,17.01
2022-09-12T18:46:55.717Z,17.08
2022-09-12T18:49:35.962Z,17.11
2022-09-12T18:52:30.684Z,17.15
2022-09-12T18:55:08.470Z,17.15
2022-09-12T18:57:45.641Z,17.12
2022-09-12T19:00:26.001Z,17.10
2022-09-12T19:03:10.559Z,17.08
2022-09-12T19:05:56.477Z,17.07
2022-09-12T19:08:48.014Z,17.07
2022-09-12T19:11:23.959Z,17.07
2022-09-12T19:14:00.508Z,16.75
2022-09-12T19:16:39.144Z,16.88
2022-09-12T19:19:24.973Z,17.02
2022-09-12T19:22:01.969Z,16.99
2022-09-12T19:24:56.706Z,17.00
2022-09-12T19:27:35.698Z,17.01
2022-09-12T19:30:32.894Z,17.03
2022-09-12T19:33:21.965Z,17.03
2022-09-12T19:36:04.723Z,17.10
2022-09-12T19:38:49.819Z,17.14
2022-09-12T19:41:35.642Z,17.17
2022-09-12T19:44:15.334Z,17.10
2022-09-12T19:46:57.589Z,17.15
2022-09-12T19:49:38.088Z,17.15
2022-09-12T19:52:23.495Z,17.15
2022-09-12T19:55:11.204Z,17.17
2022-09-12T19:58:05.700Z,17.14
2022-09-12T20:00:46.261Z,17.22
2022-09-12T20:03:23.720Z,17.22
2022-09-12T20:06:02.852Z,17.22
2022-09-12T20:11:33.554Z,17.10
2022-09-12T20:14:18.609Z,17.22
2022-09-12T20:16:55.724Z,17.19
2022-09-12T20:19:36.982Z,17.16
2022-09-12T20:22:21.332Z,17.12
2022-09-12T20:25:00.187Z,17.10
2022-09-12T20:27:51.773Z,16.94
2022-09-12T20:31:09.148Z,17.17
2022-09-12T20:33:51.700Z,17.21
2022-09-12T20:36:41.100Z,17.24
2022-09-12T20:39:23.063Z,17.28
2022-09-12T20:42:03.773Z,17.28
2022-09-12T20:44:40.335Z,17.34
2022-09-12T20:47:19.580Z,17.32
2022-09-12T20:50:04.227Z,17.20
2022-09-12T20:52:42.949Z,17.31
2022-09-12T20:55:22.202Z,17.32
2022-09-12T20:58:08.268Z,17.28
2022-09-12T21:00:47.473Z,17.30
2022-09-12T21:03:34.656Z,17.30
2022-09-12T21:06:30.679Z,17.32
2022-09-12T21:09:16.088Z,17.38
2022-09-12T21:11:54.407Z,17.41
2022-09-12T21:14:30.703Z,17.46
2022-09-12T21:17:09.812Z,17.47
2022-09-12T21:19:47.061Z,17.52
2022-09-12T21:22:41.093Z,17.59
2022-09-12T21:25:20.944Z,17.65
2022-09-12T21:27:58.479Z,17.68
2022-09-12T21:30:36.821Z,17.72
2022-09-12T21:33:15.968Z,17.76
2022-09-12T21:35:52.190Z,17.84
2022-09-12T21:41:37.985Z,18.10
2022-09-12T21:44:13.878Z,17.88
2022-09-12T21:46:54.731Z,18.18
2022-09-12T21:49:35.064Z,18.21
2022-09-12T21:52:14.572Z,18.27
2022-09-12T21:55:02.288Z,18.28
2022-09-12T21:57:51.301Z,18.35
2022-09-12T22:00:30.361Z,18.45
2022-09-12T22:03:11.099Z,18.61
2022-09-12T22:05:56.516Z,18.81
2022-09-12T22:08:33.459Z,18.90
2022-09-12T22:11:53.835Z,19.01
2022-09-12T22:14:33.124Z,19.12
2022-09-12T22:17:10.923Z,19.24
2022-09-12T22:19:51.033Z,19.39
2022-09-12T22:22:55.748Z,19.47
2022-09-12T22:25:30.686Z,19.63
2022-09-12T22:28:32.234Z,19.76
2022-09-12T22:31:20.152Z,19.85
2022-09-12T22:34:09.102Z,19.97
2022-09-12T22:36:47.752Z,20.11
2022-09-12T22:39:39.405Z,20.23
2022-09-12T22:42:41.035Z,20.36
2022-09-12T22:45:21.287Z,20.43
2022-09-12T22:48:05.046Z,20.58
2022-09-12T22:51:01.238Z,20.63
2022-09-12T22:53:46.460Z,20.66
2022-09-12T22:56:30.234Z,20.75
2022-09-12T22:59:22.592Z,20.86
2022-09-12T23:02:12.585Z,20.97
2022-09-12T23:05:03.744Z,21.08
2022-09-12T23:07:55.996Z,21.12
2022-09-12T23:10:50.443Z,21.26
2022-09-12T23:13:50.448Z,21.47
2022-09-12T23:16:35.245Z,21.36
2022-09-12T23:19:28.201Z,21.58
2022-09-12T23:22:15.415Z,21.66
2022-09-12T23:24:50.189Z,21.84
2022-09-12T23:27:29.263Z,21.97
2022-09-12T23:30:08.053Z,22.01
2022-09-12T23:32:49.061Z,22.10
2022-09-12T23:35:40.315Z,22.22
2022-09-12T23:38:18.772Z,22.33
2022-09-12T23:41:01.508Z,22.33
2022-09-12T23:43:39.534Z,22.32
2022-09-12T23:46:29.582Z,22.37
2022-09-12T23:49:07.714Z,22.52
2022-09-12T23:51:45.747Z,22.55
2022-09-12T23:54:32.163Z,22.61
2022-09-12T23:57:10.240Z,22.52
2022-09-12T23:59:51.150Z,22.47
